createdAt,value
2022-11-25T00:12:37.699Z,18.9
2022-11-25T00:27:47.180Z,13.2
2022-11-25T00:42:56.922Z,14.4
2022-11-25T00:58:07.478Z,9.4
2022-11-25T01:13:16.029Z,10.5
2022-11-25T01:28:25.622Z,11.5
2022-11-25T01:43:35.201Z,15.2
2022-11-25T01:58:44.447Z,10.4
2022-11-25T02:13:54.032Z,12.7
2022-11-25T02:29:03.659Z,12.7
2022-11-25T02:44:13.184Z,12.7
2022-11-25T02:59:22.457Z,14.1
2022-11-25T03:14:31.908Z,8.4
2022-11-25T03:29:41.265Z,8.2
2022-11-25T03:44:50.490Z,11.9
2022-11-25T03:59:59.889Z,9.4
2022-11-25T04:15:08.732Z,10.5
2022-11-25T04:30:17.751Z,13.2
2022-11-25T04:46:12.854Z,12
2022-11-25T05:01:26.672Z,12.6
2022-11-25T05:16:38.386Z,8.9
2022-11-25T05:31:48.151Z,12.6
2022-11-25T05:46:57.237Z,11.1
2022-11-25T06:02:07.890Z,12.7
2022-11-25T06:17:17.322Z,17
2022-11-25T06:32:27.134Z,10.4
2022-11-25T06:47:37.082Z,12.4
2022-11-25T07:02:49.446Z,15.9
2022-11-25T07:17:59.104Z,17.8
2022-11-25T07:33:09.311Z,14.6
2022-11-25T07:48:19.201Z,17.5
2022-11-25T08:03:28.956Z,14.1
2022-11-25T08:18:38.938Z,10
2022-11-25T08:33:48.402Z,19.9
2022-11-25T08:48:57.893Z,9.9
2022-11-25T09:04:08.998Z,15.6
2022-11-25T09:19:18.331Z,9
2022-11-25T09:34:27.846Z,12.6
2022-11-25T09:49:38.621Z,13.3
2022-11-25T10:04:48.543Z,15.9
2022-11-25T10:19:58.145Z,14.7
2022-11-25T10:35:09.509Z,15.8
2022-11-25T10:50:19.108Z,13.8
2022-11-25T11:05:28.385Z,13.7
2022-11-25T11:20:38.220Z,12.3
2022-11-25T11:35:47.342Z,11.6
2022-11-25T11:50:56.788Z,16.5
2022-11-25T12:06:09.124Z,13.9
2022-11-25T12:21:18.639Z,16.5
2022-11-25T12:36:28.216Z,15.5
2022-11-25T12:51:38.395Z,12.3
2022-11-25T13:06:47.878Z,11.6
2022-11-25T13:21:57.542Z,10.9
2022-11-25T13:37:09.424Z,11.8
2022-11-25T13:52:19.616Z,16.1
2022-11-25T14:07:29.628Z,14.2
2022-11-25T14:22:39.386Z,11.2
2022-11-25T14:37:49.216Z,15.2
2022-11-25T14:52:58.276Z,20.3
2022-11-25T15:08:09.561Z,17.1
2022-11-25T15:23:19.357Z,20.7
2022-11-25T15:38:28.700Z,23.7
2022-11-25T15:53:38.182Z,22.8
2022-11-25T16:08:47.587Z,26.1
2022-11-25T16:23:56.915Z,25.1
2022-11-25T16:39:05.765Z,25
2022-11-25T16:54:15.231Z,21
2022-11-25T17:09:24.764Z,24.6
2022-11-25T17:24:34.843Z,20.8
2022-11-25T17:39:44.509Z,22.8
2022-11-25T17:54:54.220Z,21.6
2022-11-25T18:10:03.817Z,18.8
2022-11-25T18:25:13.577Z,20.3
2022-11-25T18:40:23.158Z,21.5
2022-11-25T18:55:33.372Z,16.2
2022-11-25T19:10:42.565Z,18.2
2022-11-25T19:25:51.911Z,18.4
2022-11-25T19:41:01.798Z,24.6
2022-11-25T19:56:11.380Z,21.3
2022-11-25T20:11:20.664Z,20.5
2022-11-25T20:26:30.187Z,21.4
2022-11-25T20:41:39.920Z,25.6
2022-11-25T20:56:49.789Z,24.6
2022-11-25T21:11:58.950Z,19.1
2022-11-25T21:27:15.249Z,25.3
2022-11-25T21:42:24.855Z,23.5
2022-11-25T21:57:34.386Z,24.8
2022-11-25T22:12:43.610Z,33.9
2022-11-25T22:27:53.257Z,28.4
2022-11-25T22:43:03.114Z,23.2
2022-11-25T22:58:12.157Z,31.8
2022-11-25T23:13:21.471Z,33
2022-11-25T23:28:30.950Z,29.6
2022-11-25T23:43:41.001Z,37.5
2022-11-25T23:58:50.629Z,37.3
